createdAt,value
2023-05-10T00:03:01.084Z,3.40
2023-05-10T00:08:04.218Z,2.60
2023-05-10T00:13:06.960Z,3.92
2023-05-10T00:18:09.988Z,4.40
2023-05-10T00:23:12.715Z,5.15
2023-05-10T00:28:15.345Z,4.35
2023-05-10T00:33:18.202Z,3.97
2023-05-10T00:38:20.982Z,4.10
2023-05-10T00:43:23.942Z,3.78
2023-05-10T00:48:26.828Z,3.20
2023-05-10T00:53:30.248Z,2.80
2023-05-10T00:58:32.849Z,2.38
2023-05-10T01:03:35.785Z,2.30
2023-05-10T01:08:38.931Z,2.20
2023-05-10T01:13:43.667Z,1.50
2023-05-10T01:18:52.441Z,1.45
2023-05-10T01:23:55.379Z,1.10
2023-05-10T01:29:04.557Z,0.95
2023-05-10T01:34:07.310Z,1.20
2023-05-10T01:39:24.462Z,1.00
2023-05-10T01:44:39.470Z,1.00
2023-05-10T01:49:53.398Z,1.00
2023-05-10T01:55:06.890Z,1.38
2023-05-10T02:00:12.088Z,1.50
2023-05-10T02:05:18.641Z,1.60
2023-05-10T02:10:21.453Z,1.50
2023-05-10T02:15:25.086Z,2.92
2023-05-10T02:20:28.660Z,3.03
2023-05-10T02:25:33.044Z,3.03
2023-05-10T02:30:36.353Z,1.85
2023-05-10T02:35:39.755Z,1.20
2023-05-10T02:40:48.153Z,2.45
2023-05-10T02:45:52.070Z,3.03
2023-05-10T02:50:56.445Z,2.40
2023-05-10T02:56:01.198Z,2.00
2023-05-10T03:01:04.817Z,1.88
2023-05-10T03:06:07.749Z,2.30
2023-05-10T03:11:19.239Z,3.08
2023-05-10T03:16:26.770Z,2.28
2023-05-10T03:21:31.535Z,2.55
2023-05-10T03:26:34.900Z,2.30
2023-05-10T03:31:46.097Z,2.03
2023-05-10T03:36:51.233Z,1.60
2023-05-10T03:41:54.087Z,2.03
2023-05-10T03:46:58.244Z,2.20
2023-05-10T03:52:01.261Z,2.22
2023-05-10T03:57:05.274Z,2.40
2023-05-10T04:02:08.622Z,3.15
2023-05-10T04:07:12.897Z,2.80
2023-05-10T04:12:16.651Z,4.15
2023-05-10T04:17:19.996Z,4.82
2023-05-10T04:22:22.778Z,3.08
2023-05-10T04:27:25.863Z,3.05
2023-05-10T04:32:28.510Z,3.45
2023-05-10T04:37:31.334Z,3.35
2023-05-10T04:42:34.108Z,3.00
2023-05-10T04:47:38.418Z,3.83
2023-05-10T04:52:41.236Z,3.78
2023-05-10T04:57:44.116Z,3.22
2023-05-10T05:02:47.492Z,2.40
2023-05-10T05:07:50.258Z,3.50
2023-05-10T05:12:53.231Z,2.95
2023-05-10T05:17:56.109Z,3.58
2023-05-10T05:22:58.915Z,3.38
2023-05-10T05:28:07.657Z,3.03
2023-05-10T05:33:10.402Z,2.65
2023-05-10T05:38:13.234Z,3.08
2023-05-10T05:43:18.477Z,3.55
2023-05-10T05:48:21.415Z,2.90
2023-05-10T05:53:24.865Z,3.00
2023-05-10T05:58:28.268Z,2.30
2023-05-10T06:03:31.578Z,2.50
2023-05-10T06:08:36.271Z,1.83
2023-05-10T06:13:39.068Z,2.28
2023-05-10T06:18:41.780Z,2.33
2023-05-10T06:23:45.302Z,1.95
2023-05-10T06:28:48.316Z,1.80
2023-05-10T06:33:51.044Z,2.25
2023-05-10T06:38:54.064Z,2.00
2023-05-10T06:43:57.068Z,2.13
2023-05-10T06:49:00.173Z,4.13
2023-05-10T06:54:03.275Z,2.13
2023-05-10T06:59:06.172Z,2.35
2023-05-10T07:04:09.455Z,2.13
2023-05-10T07:09:12.514Z,2.00
2023-05-10T07:14:15.130Z,1.60
2023-05-10T07:19:17.889Z,3.33
2023-05-10T07:24:20.663Z,4.38
2023-05-10T07:29:23.495Z,2.33
2023-05-10T07:34:26.770Z,2.47
2023-05-10T07:39:30.809Z,2.35
2023-05-10T07:44:33.559Z,2.22
2023-05-10T07:49:37.929Z,2.22
2023-05-10T07:54:40.910Z,2.30
2023-05-10T07:59:44.216Z,2.85
2023-05-10T08:04:47.065Z,2.83
2023-05-10T08:09:50.012Z,2.30
2023-05-10T08:14:53.212Z,2.05
2023-05-10T08:19:55.924Z,2.10
2023-05-10T08:24:58.882Z,1.90
2023-05-10T08:30:01.995Z,1.88
2023-05-10T08:35:08.776Z,2.40
2023-05-10T08:40:12.919Z,2.22
2023-05-10T08:45:17.771Z,2.22
2023-05-10T08:50:21.630Z,1.58
2023-05-10T08:55:25.722Z,2.22
2023-05-10T09:00:29.572Z,2.10
2023-05-10T09:05:33.295Z,2.45
2023-05-10T09:10:36.317Z,2.47
2023-05-10T09:15:39.812Z,2.30
2023-05-10T09:20:42.639Z,2.20
2023-05-10T09:25:45.399Z,2.30
2023-05-10T09:30:54.591Z,2.08
2023-05-10T09:36:08.553Z,1.90
2023-05-10T09:41:17.883Z,2.13
2023-05-10T09:46:20.882Z,2.05
2023-05-10T09:51:28.234Z,2.38
2023-05-10T09:56:36.855Z,1.95
2023-05-10T10:01:40.287Z,1.92
2023-05-10T10:06:43.501Z,1.80
2023-05-10T10:11:46.357Z,2.22
2023-05-10T10:17:05.770Z,2.40
2023-05-10T10:22:13.036Z,2.50
2023-05-10T10:27:25.489Z,2.10
2023-05-10T10:32:31.049Z,2.10
2023-05-10T10:37:47.121Z,2.15
2023-05-10T10:42:53.303Z,2.25
2023-05-10T10:48:20.161Z,2.05
2023-05-10T10:53:23.282Z,3.30
2023-05-10T10:58:32.487Z,1.90
2023-05-10T11:03:35.253Z,2.65
2023-05-10T11:08:45.246Z,2.17
2023-05-10T11:13:51.730Z,1.48
2023-05-10T11:18:55.430Z,1.90
2023-05-10T11:23:59.210Z,2.20
2023-05-10T11:29:03.167Z,2.20
2023-05-10T11:34:06.390Z,3.88
2023-05-10T11:39:09.159Z,1.70
2023-05-10T11:44:12.061Z,3.10
2023-05-10T11:49:14.869Z,2.10
2023-05-10T11:54:18.007Z,1.80
2023-05-10T11:59:20.990Z,2.05
2023-05-10T12:04:24.063Z,1.83
2023-05-10T12:09:42.739Z,3.13
2023-05-10T12:14:50.199Z,2.72
2023-05-10T12:19:53.114Z,2.92
2023-05-10T12:25:00.052Z,3.58
2023-05-10T12:30:03.870Z,3.03
2023-05-10T12:35:08.001Z,2.95
2023-05-10T12:40:12.356Z,3.50
2023-05-10T12:45:15.503Z,3.20
2023-05-10T12:50:18.627Z,2.13
2023-05-10T12:55:21.565Z,2.40
2023-05-10T13:00:24.513Z,3.47
2023-05-10T13:05:27.138Z,2.25
2023-05-10T13:10:31.520Z,2.70
2023-05-10T13:15:34.439Z,2.13
2023-05-10T13:20:37.325Z,3.20
2023-05-10T13:25:40.558Z,2.13
2023-05-10T13:30:43.325Z,2.55
2023-05-10T13:35:46.674Z,4.55
2023-05-10T13:40:49.455Z,3.25
2023-05-10T13:45:52.281Z,4.88
2023-05-10T13:50:55.566Z,3.95
2023-05-10T13:55:58.620Z,6.85
2023-05-10T14:01:01.534Z,5.82
2023-05-10T14:06:04.763Z,2.72
2023-05-10T14:11:07.998Z,2.35
2023-05-10T14:16:10.890Z,3.05
2023-05-10T14:21:14.071Z,3.13
2023-05-10T14:26:17.598Z,2.53
2023-05-10T14:31:22.157Z,2.58
2023-05-10T14:36:24.824Z,2.90
2023-05-10T14:41:27.674Z,2.78
2023-05-10T14:46:31.220Z,2.50
2023-05-10T14:51:33.993Z,1.95
2023-05-10T14:56:38.656Z,2.58
2023-05-10T15:01:43.497Z,2.58
2023-05-10T15:06:46.910Z,2.90
2023-05-10T15:11:49.741Z,3.10
2023-05-10T15:16:52.917Z,3.70
2023-05-10T15:21:56.771Z,4.93
2023-05-10T15:27:00.295Z,5.53
2023-05-10T15:32:04.167Z,4.80
2023-05-10T15:37:07.589Z,4.18
2023-05-10T15:42:10.818Z,4.22
2023-05-10T15:47:14.048Z,3.95
2023-05-10T15:52:17.107Z,3.10
2023-05-10T15:57:20.170Z,3.30
2023-05-10T16:02:23.744Z,3.83
2023-05-10T16:07:26.724Z,4.30
2023-05-10T16:12:29.704Z,5.05
2023-05-10T16:17:32.887Z,4.50
2023-05-10T16:22:36.305Z,4.85
2023-05-10T16:27:39.231Z,4.38
2023-05-10T16:32:42.253Z,5.10
2023-05-10T16:37:45.286Z,4.43
2023-05-10T16:42:48.147Z,5.68
2023-05-10T16:47:51.103Z,6.25
2023-05-10T16:52:54.122Z,5.28
2023-05-10T16:58:01.132Z,4.88
2023-05-10T17:03:04.803Z,5.72
2023-05-10T17:08:08.003Z,5.38
2023-05-10T17:13:11.289Z,4.20
2023-05-10T17:18:14.330Z,3.53
2023-05-10T17:23:17.280Z,3.88
2023-05-10T17:28:20.254Z,4.50
2023-05-10T17:33:23.443Z,4.75
2023-05-10T17:38:28.631Z,4.72
2023-05-10T17:43:31.821Z,4.38
2023-05-10T17:48:37.428Z,4.15
2023-05-10T17:53:41.133Z,4.47
2023-05-10T17:58:44.108Z,4.57
2023-05-10T18:03:49.774Z,4.10
2023-05-10T18:08:52.809Z,3.78
2023-05-10T18:13:58.398Z,3.88
2023-05-10T18:19:02.704Z,3.13
2023-05-10T18:24:06.359Z,4.25
2023-05-10T18:29:09.401Z,3.38
2023-05-10T18:34:12.551Z,3.38
2023-05-10T18:39:15.471Z,3.97
2023-05-10T18:44:19.322Z,4.50
2023-05-10T18:49:22.462Z,4.47
2023-05-10T18:54:25.313Z,4.07
2023-05-10T18:59:28.423Z,4.50
2023-05-10T19:04:31.806Z,3.80
2023-05-10T19:09:34.672Z,4.13
2023-05-10T19:14:37.566Z,4.10
2023-05-10T19:19:40.890Z,4.00
2023-05-10T19:24:45.012Z,3.55
2023-05-10T19:29:48.093Z,4.00
2023-05-10T19:34:52.734Z,3.17
2023-05-10T19:39:55.755Z,3.50
2023-05-10T19:44:59.009Z,3.10
2023-05-10T19:50:02.269Z,4.05
2023-05-10T19:55:07.585Z,5.70
2023-05-10T20:00:10.876Z,5.00
2023-05-10T20:05:16.975Z,4.70
2023-05-10T20:10:19.971Z,3.72
2023-05-10T20:15:23.782Z,3.97
2023-05-10T20:20:26.750Z,3.70
2023-05-10T20:25:29.666Z,3.50
2023-05-10T20:30:32.730Z,3.75
2023-05-10T20:35:35.707Z,4.00
2023-05-10T20:40:38.459Z,3.78
2023-05-10T20:45:41.310Z,3.38
2023-05-10T20:50:43.983Z,3.80
2023-05-10T20:55:46.704Z,3.42
2023-05-10T21:00:49.627Z,2.90
2023-05-10T21:05:52.376Z,3.03
2023-05-10T21:10:55.270Z,3.90
2023-05-10T21:15:58.182Z,3.13
2023-05-10T21:21:01.310Z,3.13
2023-05-10T21:26:04.729Z,3.95
2023-05-10T21:31:07.867Z,3.20
2023-05-10T21:36:10.843Z,3.33
2023-05-10T21:41:13.483Z,3.63
2023-05-10T21:46:16.465Z,3.10
2023-05-10T21:51:19.321Z,3.40
2023-05-10T21:56:22.745Z,2.50
2023-05-10T22:01:25.697Z,2.80
2023-05-10T22:06:28.620Z,3.03
2023-05-10T22:11:31.830Z,3.63
2023-05-10T22:16:34.712Z,3.65
2023-05-10T22:21:37.630Z,3.85
2023-05-10T22:26:40.688Z,3.88
2023-05-10T22:31:43.500Z,3.90
2023-05-10T22:36:46.971Z,4.70
2023-05-10T22:41:50.056Z,4.88
2023-05-10T22:46:52.974Z,4.68
2023-05-10T22:51:55.908Z,4.55
2023-05-10T22:56:58.882Z,4.90
2023-05-10T23:02:02.084Z,5.38
2023-05-10T23:07:05.137Z,5.20
2023-05-10T23:12:07.843Z,4.40
2023-05-10T23:17:10.594Z,4.43
2023-05-10T23:22:14.076Z,3.72
2023-05-10T23:27:16.976Z,4.47
2023-05-10T23:32:19.906Z,3.47
2023-05-10T23:37:22.648Z,3.60
2023-05-10T23:42:25.688Z,2.83
2023-05-10T23:47:28.482Z,2.83
2023-05-10T23:52:31.348Z,2.63
2023-05-10T23:57:34.052Z,2.30
